Time;durP1;ratioP1;P1;durP2;ratioP2;P2;SDS_P1;SDS_P2;PMS_P1;PMS_P2;Temp;Humidity;BMP_temperature;BMP_pressure;BME280_temperature;BME280_humidity;BME280_pressure;Samples;Min_cycle;Max_cycle;Signal;HPM_P1;HPM_P2
2022/10/11 00:00:48;;;;;;;16.02;6.72;;;;;;;;;;4981430;28;20087;-77
2022/10/11 00:03:15;;;;;;;13.18;6.70;;;;;;;;;;4981163;28;20462;-77
2022/10/11 00:05:42;;;;;;;14.02;5.97;;;;;;;;;;4973327;28;20122;-77
2022/10/11 00:08:09;;;;;;;15.23;5.47;;;;;;;;;;4973187;28;20183;-76
2022/10/11 00:10:35;;;;;;;10.45;5.53;;;;;;;;;;4955833;28;20036;-78
2022/10/11 00:13:01;;;;;;;14.65;5.15;;;;;;;;;;4973313;28;20513;-76
2022/10/11 00:15:27;;;;;;;16.15;5.47;;;;;;;;;;4973264;28;20094;-77
2022/10/11 00:17:53;;;;;;;13.32;5.32;;;;;;;;;;4973224;28;20026;-76
2022/10/11 00:20:19;;;;;;;11.70;5.13;;;;;;;;;;4973628;28;20054;-77
2022/10/11 00:22:45;;;;;;;10.07;5.28;;;;;;;;;;4986122;28;20058;-79
2022/10/11 00:25:11;;;;;;;13.07;4.78;;;;;;;;;;4977477;28;20031;-77
2022/10/11 00:27:37;;;;;;;10.02;5.32;;;;;;;;;;4960590;28;20447;-77
2022/10/11 00:30:04;;;;;;;13.02;5.13;;;;;;;;;;4996783;28;20043;-79
2022/10/11 00:32:31;;;;;;;12.50;4.88;;;;;;;;;;4980329;28;20011;-79
2022/10/11 00:35:03;;;;;;;9.07;5.03;;;;;;;;;;4995742;28;20033;-78
2022/10/11 00:37:29;;;;;;;9.38;4.40;;;;;;;;;;4975376;28;20034;-78
2022/10/11 00:39:55;;;;;;;10.63;4.55;;;;;;;;;;4988497;28;20035;-78
2022/10/11 00:42:21;;;;;;;12.35;5.32;;;;;;;;;;4972846;28;20050;-78
2022/10/11 00:44:47;;;;;;;11.75;5.03;;;;;;;;;;4972409;28;20018;-77
2022/10/11 00:47:20;;;;;;;14.18;5.80;;;;;;;;;;4969987;28;20041;-77
2022/10/11 00:49:55;;;;;;;13.80;5.00;;;;;;;;;;4970156;28;20039;-77
2022/10/11 00:52:30;;;;;;;10.90;4.85;;;;;;;;;;4974204;28;20420;-78
2022/10/11 00:54:57;;;;;;;9.25;4.20;;;;;;;;;;4957297;28;20058;-78
2022/10/11 00:57:24;;;;;;;9.63;4.80;;;;;;;;;;4983902;28;20026;-78
2022/10/11 00:59:52;;;;;;;9.25;4.95;;;;;;;;;;4975546;28;20037;-77
2022/10/11 01:02:18;;;;;;;10.25;4.88;;;;;;;;;;4955741;28;20030;-76
2022/10/11 01:04:45;;;;;;;11.98;5.15;;;;;;;;;;4955325;28;20029;-77
2022/10/11 01:07:11;;;;;;;8.82;4.45;;;;;;;;;;4972341;28;20058;-77
2022/10/11 01:09:37;;;;;;;11.32;5.80;;;;;;;;;;4971964;28;20031;-77
2022/10/11 01:12:04;;;;;;;10.68;4.63;;;;;;;;;;4972517;28;20023;-78
2022/10/11 01:14:49;;;;;;;12.95;5.72;;;;;;;;;;4972192;28;20031;-78
2022/10/11 01:17:21;;;;;;;13.95;5.13;;;;;;;;;;4972719;28;20027;-77
2022/10/11 01:19:54;;;;;;;10.15;4.82;;;;;;;;;;4972140;28;20023;-77
2022/10/11 01:22:28;;;;;;;13.73;5.85;;;;;;;;;;4972566;28;20027;-77
2022/10/11 01:25:12;;;;;;;12.90;6.03;;;;;;;;;;4972287;28;20401;-77
2022/10/11 01:27:46;;;;;;;12.75;5.10;;;;;;;;;;4972331;28;20090;-77
2022/10/11 01:30:15;;;;;;;12.32;5.38;;;;;;;;;;4971981;28;20035;-77
2022/10/11 01:33:00;;;;;;;12.45;5.47;;;;;;;;;;4972344;28;20371;-78
2022/10/11 01:35:26;;;;;;;12.77;5.90;;;;;;;;;;4972254;28;20515;-77
2022/10/11 01:38:12;;;;;;;13.65;5.97;;;;;;;;;;4975441;28;20098;-78
2022/10/11 01:40:41;;;;;;;12.15;5.75;;;;;;;;;;4975960;28;20034;-77
2022/10/11 01:43:08;;;;;;;11.45;5.75;;;;;;;;;;4958138;28;20057;-79
2022/10/11 01:45:34;;;;;;;9.88;5.70;;;;;;;;;;4976038;28;20030;-77
2022/10/11 01:48:02;;;;;;;11.30;5.35;;;;;;;;;;4975145;28;20033;-77
2022/10/11 01:50:31;;;;;;;10.82;5.35;;;;;;;;;;4975575;28;20370;-78
2022/10/11 01:52:58;;;;;;;13.20;5.07;;;;;;;;;;4975340;28;20406;-78
2022/10/11 01:55:37;;;;;;;11.93;5.90;;;;;;;;;;4975557;28;20027;-77
2022/10/11 01:58:14;;;;;;;10.68;5.53;;;;;;;;;;4974971;28;20034;-77
2022/10/11 02:01:06;;;;;;;14.80;6.15;;;;;;;;;;4975141;28;20037;-76
2022/10/11 02:03:51;;;;;;;9.75;6.10;;;;;;;;;;4975140;28;20034;-77
2022/10/11 02:06:30;;;;;;;13.88;5.70;;;;;;;;;;4957855;28;20378;-77
2022/10/11 02:09:07;;;;;;;13.27;5.80;;;;;;;;;;4974956;28;20073;-77
2022/10/11 02:11:34;;;;;;;12.05;6.10;;;;;;;;;;4975573;28;20019;-77
2022/10/11 02:14:00;;;;;;;10.45;5.93;;;;;;;;;;4975265;28;20031;-78
2022/10/11 02:16:31;;;;;;;9.57;6.20;;;;;;;;;;4974889;28;20077;-77
2022/10/11 02:18:58;;;;;;;15.68;6.72;;;;;;;;;;4974921;28;20440;-77
2022/10/11 02:21:24;;;;;;;10.13;6.03;;;;;;;;;;4974867;28;20030;-78
2022/10/11 02:23:55;;;;;;;11.82;5.68;;;;;;;;;;4975261;28;20077;-78
2022/10/11 02:26:21;;;;;;;;;;;;;;;;;;4975254;28;20111;-78
2022/10/11 02:28:49;;;;;;;10.10;5.72;;;;;;;;;;4975173;28;19993;-76
2022/10/11 02:31:16;;;;;;;14.48;6.68;;;;;;;;;;4974637;28;20097;-77
2022/10/11 02:33:45;;;;;;;12.60;6.72;;;;;;;;;;4975071;28;20015;-77
2022/10/11 02:36:15;;;;;;;11.18;6.80;;;;;;;;;;4974947;28;20027;-77
2022/10/11 02:38:47;;;;;;;12.10;7.40;;;;;;;;;;4974680;28;20477;-77
2022/10/11 02:41:30;;;;;;;11.90;6.75;;;;;;;;;;4974945;28;20019;-78
2022/10/11 02:44:02;;;;;;;9.88;6.82;;;;;;;;;;4974874;28;20645;-76
2022/10/11 02:46:29;;;;;;;8.95;5.88;;;;;;;;;;4974520;28;20026;-77
2022/10/11 02:48:56;;;;;;;15.48;6.53;;;;;;;;;;4973848;28;20485;-77
2022/10/11 02:51:22;;;;;;;9.77;6.45;;;;;;;;;;4975115;28;20031;-77
2022/10/11 02:53:48;;;;;;;12.18;6.82;;;;;;;;;;4975488;28;20022;-75
2022/10/11 02:56:14;;;;;;;8.65;6.25;;;;;;;;;;4974641;28;20019;-76
2022/10/11 02:58:40;;;;;;;12.07;6.35;;;;;;;;;;4974393;28;20039;-76
2022/10/11 03:01:06;;;;;;;11.52;6.57;;;;;;;;;;4957515;28;20035;-78
2022/10/11 03:03:32;;;;;;;10.43;5.82;;;;;;;;;;4957103;28;20065;-76
2022/10/11 03:06:01;;;;;;;12.07;5.95;;;;;;;;;;4957045;28;20062;-76
2022/10/11 03:08:27;;;;;;;18.35;6.03;;;;;;;;;;4973626;28;20500;-76
2022/10/11 03:10:53;;;;;;;7.00;4.72;;;;;;;;;;4974252;28;20033;-77
2022/10/11 03:15:49;;;;;;;9.75;5.85;;;;;;;;;;5006866;23;20086;-78
2022/10/11 03:21:18;;;;;;;13.10;5.03;;;;;;;;;;4994405;28;20069;-78
2022/10/11 03:23:47;;;;;;;8.63;4.50;;;;;;;;;;4981770;28;20026;-77
2022/10/11 03:26:13;;;;;;;10.60;4.93;;;;;;;;;;4979042;28;20038;-77
2022/10/11 03:28:39;;;;;;;14.07;5.47;;;;;;;;;;4956438;28;20022;-78
2022/10/11 03:31:08;;;;;;;7.75;4.10;;;;;;;;;;4969244;28;20030;-78
2022/10/11 03:33:34;;;;;;;7.85;4.70;;;;;;;;;;4969645;28;20362;-78
2022/10/11 03:36:09;;;;;;;7.47;3.83;;;;;;;;;;4956088;28;20560;-78
2022/10/11 03:38:35;;;;;;;10.65;3.75;;;;;;;;;;4979827;28;20068;-79
2022/10/11 03:41:01;;;;;;;9.10;3.85;;;;;;;;;;4964230;28;20041;-78
2022/10/11 03:43:27;;;;;;;7.18;2.88;;;;;;;;;;4956081;28;20019;-78
2022/10/11 03:45:54;;;;;;;7.40;2.40;;;;;;;;;;4984902;28;20022;-79
2022/10/11 03:48:20;;;;;;;9.30;2.58;;;;;;;;;;4975042;28;20455;-79
2022/10/11 03:50:46;;;;;;;8.05;2.47;;;;;;;;;;4956042;28;20031;-79
2022/10/11 03:53:12;;;;;;;11.85;2.10;;;;;;;;;;4973283;28;20030;-79
2022/10/11 03:55:39;;;;;;;10.88;3.28;;;;;;;;;;4973440;28;20486;-76
2022/10/11 03:58:05;;;;;;;7.82;2.35;;;;;;;;;;4956445;28;20401;-76
2022/10/11 04:00:31;;;;;;;8.52;1.95;;;;;;;;;;4964523;28;20033;-77
2022/10/11 04:02:58;;;;;;;11.95;2.10;;;;;;;;;;4978458;28;20397;-77
2022/10/11 04:05:24;;;;;;;6.38;1.80;;;;;;;;;;4973629;28;20023;-78
2022/10/11 04:07:50;;;;;;;11.70;2.42;;;;;;;;;;4956457;28;20062;-78
2022/10/11 04:10:16;;;;;;;11.20;2.03;;;;;;;;;;4955891;28;20035;-78
2022/10/11 04:12:42;;;;;;;8.35;2.00;;;;;;;;;;4985550;28;20110;-78
2022/10/11 04:15:11;;;;;;;9.98;2.70;;;;;;;;;;4973913;28;20027;-78
2022/10/11 04:17:37;;;;;;;11.50;2.63;;;;;;;;;;4973196;28;20026;-78
2022/10/11 04:20:03;;;;;;;9.35;2.20;;;;;;;;;;4957102;28;20512;-78
2022/10/11 04:22:30;;;;;;;6.30;2.05;;;;;;;;;;4966230;28;20088;-78
2022/10/11 04:24:57;;;;;;;8.00;1.98;;;;;;;;;;4976022;28;20082;-79
2022/10/11 04:27:29;;;;;;;6.57;1.98;;;;;;;;;;4974921;28;20094;-79
2022/10/11 04:29:57;;;;;;;9.73;2.40;;;;;;;;;;4959673;28;20514;-79
2022/10/11 04:32:26;;;;;;;8.88;2.63;;;;;;;;;;4965909;28;20027;-80
2022/10/11 04:34:52;;;;;;;8.88;2.60;;;;;;;;;;4956572;28;20111;-79
2022/10/11 04:37:20;;;;;;;9.13;1.80;;;;;;;;;;4977090;28;20113;-79
2022/10/11 04:39:46;;;;;;;9.68;2.03;;;;;;;;;;4957915;28;20023;-79
2022/10/11 04:42:13;;;;;;;10.68;2.92;;;;;;;;;;4955565;28;20393;-79
2022/10/11 04:44:42;;;;;;;7.93;2.50;;;;;;;;;;4974475;28;20059;-79
2022/10/11 04:47:08;;;;;;;6.05;2.35;;;;;;;;;;4983429;28;20046;-79
2022/10/11 04:49:36;;;;;;;9.82;2.80;;;;;;;;;;4978119;28;20099;-81
2022/10/11 04:52:03;;;;;;;11.25;2.90;;;;;;;;;;4987058;28;20389;-79
2022/10/11 04:54:48;;;;;;;;;;;;;;;;;;;;;
2022/10/11 04:57:14;;;;;;;6.97;2.72;;;;;;;;;;4958846;29;20122;-78
2022/10/11 04:59:56;;;;;;;10.82;2.85;;;;;;;;;;4972066;28;20031;-79
2022/10/11 05:02:24;;;;;;;;;;;;;;;;;;4957760;29;20055;-78
2022/10/11 05:04:50;;;;;;;9.07;2.70;;;;;;;;;;4941931;29;20294;-79
2022/10/11 05:07:52;;;;;;;12.65;3.05;;;;;;;;;;5044459;23;20030;-80
2022/10/11 05:10:18;;;;;;;;;;;;;;;;;;4978207;28;20049;-78
2022/10/11 05:12:44;;;;;;;13.57;2.95;;;;;;;;;;4998061;28;19906;-77
2022/10/11 05:15:10;;;;;;;8.27;1.70;;;;;;;;;;4996519;28;20026;-77
2022/10/11 05:17:36;;;;;;;12.15;2.92;;;;;;;;;;4996433;28;20023;-78
2022/10/11 05:20:02;;;;;;;9.68;2.25;;;;;;;;;;4980094;28;20117;-79
2022/10/11 05:22:28;;;;;;;15.80;2.63;;;;;;;;;;4996890;28;20117;-77
2022/10/11 05:24:54;;;;;;;9.65;2.65;;;;;;;;;;4978962;28;20032;-78
2022/10/11 05:27:20;;;;;;;8.85;1.85;;;;;;;;;;4995392;28;20034;-78
2022/10/11 05:29:46;;;;;;;13.73;2.72;;;;;;;;;;4996046;28;20026;-77
2022/10/11 05:32:12;;;;;;;14.02;3.08;;;;;;;;;;4998221;28;20014;-78
2022/10/11 05:34:38;;;;;;;12.07;2.67;;;;;;;;;;4998300;28;20029;-78
2022/10/11 05:37:04;;;;;;;11.77;3.65;;;;;;;;;;4995945;28;20030;-79
2022/10/11 05:39:31;;;;;;;9.63;2.78;;;;;;;;;;4996841;28;20034;-77
2022/10/11 05:41:57;;;;;;;10.45;2.78;;;;;;;;;;4996173;28;20123;-77
2022/10/11 05:44:23;;;;;;;7.95;3.33;;;;;;;;;;4996932;28;20570;-78
2022/10/11 05:46:51;;;;;;;17.88;3.60;;;;;;;;;;4999590;28;20045;-76
2022/10/11 05:49:17;;;;;;;9.48;2.55;;;;;;;;;;4998829;28;20052;-78
2022/10/11 05:51:43;;;;;;;12.60;3.08;;;;;;;;;;4981666;28;20015;-79
2022/10/11 05:54:09;;;;;;;11.05;2.72;;;;;;;;;;4985145;28;20477;-79
2022/10/11 05:56:35;;;;;;;9.13;2.63;;;;;;;;;;4978679;28;20022;-77
2022/10/11 05:59:01;;;;;;;14.07;2.85;;;;;;;;;;4997215;28;20026;-76
2022/10/11 06:01:27;;;;;;;11.52;2.75;;;;;;;;;;4994478;28;20076;-73
2022/10/11 06:03:54;;;;;;;7.43;2.70;;;;;;;;;;4999230;28;20485;-73
2022/10/11 06:06:20;;;;;;;14.73;3.25;;;;;;;;;;4999272;28;20031;-70
2022/10/11 06:08:47;;;;;;;16.48;3.60;;;;;;;;;;4976819;28;20030;-72
2022/10/11 06:11:14;;;;;;;12.43;2.28;;;;;;;;;;4994078;28;20034;-73
2022/10/11 06:13:41;;;;;;;13.82;3.00;;;;;;;;;;4977138;28;20124;-73
2022/10/11 06:16:07;;;;;;;13.82;3.10;;;;;;;;;;4994491;28;20063;-71
2022/10/11 06:18:33;;;;;;;7.75;2.83;;;;;;;;;;4993860;28;20050;-73
2022/10/11 06:20:59;;;;;;;12.90;3.00;;;;;;;;;;4994583;28;20074;-73
2022/10/11 06:23:25;;;;;;;14.05;3.10;;;;;;;;;;4993025;28;20026;-73
2022/10/11 06:25:57;;;;;;;12.23;2.60;;;;;;;;;;4989431;28;20034;-73
2022/10/11 06:28:23;;;;;;;7.13;2.22;;;;;;;;;;4986223;28;20046;-73
2022/10/11 06:30:49;;;;;;;9.40;2.10;;;;;;;;;;4989983;28;20045;-72
2022/10/11 06:33:15;;;;;;;9.75;2.40;;;;;;;;;;4990997;28;20385;-79
2022/10/11 06:35:41;;;;;;;11.73;3.28;;;;;;;;;;4984323;28;20152;-73
2022/10/11 06:38:10;;;;;;;21.13;6.13;;;;;;;;;;4990699;28;20030;-76
2022/10/11 06:40:36;;;;;;;36.15;8.63;;;;;;;;;;4965675;28;20037;-76
2022/10/11 06:43:03;;;;;;;10.93;2.80;;;;;;;;;;4992275;28;20034;-77
2022/10/11 06:45:29;;;;;;;8.00;2.78;;;;;;;;;;4994365;28;20027;-76
2022/10/11 06:47:55;;;;;;;8.85;2.63;;;;;;;;;;4973080;28;20524;-77
2022/10/11 06:50:21;;;;;;;7.80;2.60;;;;;;;;;;4993190;28;20030;-80
2022/10/11 06:52:47;;;;;;;11.85;2.50;;;;;;;;;;4992339;28;20535;-80
2022/10/11 06:55:13;;;;;;;7.18;2.30;;;;;;;;;;4974396;28;20481;-77
2022/10/11 06:57:39;;;;;;;4.57;2.13;;;;;;;;;;4992289;28;20030;-77
2022/10/11 07:00:05;;;;;;;11.27;2.50;;;;;;;;;;4991388;28;20030;-77
2022/10/11 07:02:31;;;;;;;9.40;3.15;;;;;;;;;;4991728;28;20084;-78
2022/10/11 07:04:57;;;;;;;14.90;2.58;;;;;;;;;;4991844;28;20457;-80
2022/10/11 07:07:23;;;;;;;8.05;2.67;;;;;;;;;;4993688;28;20058;-75
2022/10/11 07:09:49;;;;;;;16.40;3.05;;;;;;;;;;4994389;28;20026;-76
2022/10/11 07:12:15;;;;;;;14.20;3.30;;;;;;;;;;4994809;28;20445;-78
2022/10/11 07:14:41;;;;;;;11.52;3.20;;;;;;;;;;4993762;28;20058;-76
2022/10/11 07:17:07;;;;;;;12.95;3.30;;;;;;;;;;4993475;28;20081;-72
2022/10/11 07:19:33;;;;;;;8.95;2.80;;;;;;;;;;4994645;28;20113;-76
2022/10/11 07:21:59;;;;;;;12.73;3.47;;;;;;;;;;4994483;28;20041;-76
2022/10/11 07:24:25;;;;;;;16.00;3.45;;;;;;;;;;4993540;28;20073;-75
2022/10/11 07:26:51;;;;;;;10.07;2.70;;;;;;;;;;4993195;28;20027;-74
2022/10/11 07:29:17;;;;;;;13.02;3.50;;;;;;;;;;4993257;28;20032;-76
2022/10/11 07:31:43;;;;;;;16.23;2.97;;;;;;;;;;4993424;28;20015;-76
2022/10/11 07:34:10;;;;;;;14.32;3.88;;;;;;;;;;4993638;28;20022;-75
2022/10/11 07:36:36;;;;;;;15.82;3.03;;;;;;;;;;4993589;28;20069;-74
2022/10/11 07:39:05;;;;;;;11.30;2.78;;;;;;;;;;4993913;28;20149;-76
2022/10/11 07:41:31;;;;;;;8.93;2.35;;;;;;;;;;4993715;28;20057;-75
2022/10/11 07:43:57;;;;;;;13.43;2.80;;;;;;;;;;4997232;28;20014;-75
2022/10/11 07:46:23;;;;;;;12.88;3.65;;;;;;;;;;4994024;28;20113;-75
2022/10/11 07:48:50;;;;;;;12.85;2.95;;;;;;;;;;5001467;28;20109;-76
2022/10/11 07:51:20;;;;;;;14.15;3.20;;;;;;;;;;5004294;28;20032;-75
2022/10/11 07:53:47;;;;;;;8.15;2.90;;;;;;;;;;4986325;28;20064;-77
2022/10/11 07:56:15;;;;;;;9.68;2.45;;;;;;;;;;5003468;28;20072;-76
2022/10/11 07:58:42;;;;;;;14.27;3.35;;;;;;;;;;4997363;28;20030;-77
2022/10/11 08:01:09;;;;;;;12.57;2.72;;;;;;;;;;5002040;28;20110;-75
2022/10/11 08:03:36;;;;;;;18.67;3.22;;;;;;;;;;4992909;28;20022;-77
2022/10/11 08:06:03;;;;;;;13.20;2.72;;;;;;;;;;4992672;28;20113;-75
2022/10/11 08:08:30;;;;;;;11.38;3.15;;;;;;;;;;4991966;28;20086;-74
2022/10/11 08:10:56;;;;;;;13.82;2.83;;;;;;;;;;4993000;28;20477;-78
2022/10/11 08:13:22;;;;;;;14.23;3.25;;;;;;;;;;4992978;28;20022;-74
2022/10/11 08:15:48;;;;;;;17.50;3.50;;;;;;;;;;4992333;28;20128;-78
2022/10/11 08:18:14;;;;;;;13.68;3.00;;;;;;;;;;4974469;28;20521;-75
2022/10/11 08:20:40;;;;;;;16.42;3.28;;;;;;;;;;4974977;28;20113;-75
2022/10/11 08:23:06;;;;;;;14.48;3.85;;;;;;;;;;4975206;28;20058;-75
2022/10/11 08:25:39;;;;;;;15.93;3.67;;;;;;;;;;4992449;28;20034;-76
2022/10/11 08:28:06;;;;;;;13.98;3.17;;;;;;;;;;4992139;28;20026;-75
2022/10/11 08:30:33;;;;;;;14.15;3.03;;;;;;;;;;4992097;28;20028;-76
2022/10/11 08:32:59;;;;;;;14.77;3.65;;;;;;;;;;4992041;28;20098;-75
2022/10/11 08:35:25;;;;;;;14.63;3.90;;;;;;;;;;4992238;28;20037;-75
2022/10/11 08:37:51;;;;;;;12.18;2.42;;;;;;;;;;4992123;28;20022;-76
2022/10/11 08:40:19;;;;;;;12.80;2.55;;;;;;;;;;4992361;28;20054;-75
2022/10/11 08:42:48;;;;;;;17.23;4.28;;;;;;;;;;4992048;28;20504;-75
2022/10/11 08:45:25;;;;;;;18.50;4.05;;;;;;;;;;4991641;28;20031;-75
2022/10/11 08:47:57;;;;;;;13.60;2.85;;;;;;;;;;4991413;28;20036;-75
2022/10/11 08:50:23;;;;;;;14.02;3.63;;;;;;;;;;4992100;28;20034;-75
2022/10/11 08:52:57;;;;;;;14.30;3.08;;;;;;;;;;4992044;28;20030;-77
2022/10/11 08:55:26;;;;;;;13.43;3.10;;;;;;;;;;4992105;28;20080;-76
2022/10/11 08:57:53;;;;;;;24.45;3.50;;;;;;;;;;4991338;28;20022;-77
2022/10/11 09:00:20;;;;;;;17.88;3.47;;;;;;;;;;4985854;28;20026;-78
2022/10/11 09:02:46;;;;;;;12.07;2.65;;;;;;;;;;4985331;28;20030;-75
2022/10/11 09:05:14;;;;;;;16.08;3.65;;;;;;;;;;4973411;28;20219;-76
2022/10/11 09:07:59;;;;;;;24.17;4.82;;;;;;;;;;4989837;28;20056;-76
2022/10/11 09:10:37;;;;;;;25.67;3.35;;;;;;;;;;4977981;28;20034;-76
2022/10/11 09:13:12;;;;;;;13.60;2.83;;;;;;;;;;4990514;28;20384;-76
2022/10/11 09:15:57;;;;;;;16.70;2.75;;;;;;;;;;4990247;28;20022;-78
2022/10/11 09:18:26;;;;;;;23.60;3.67;;;;;;;;;;4989676;28;20018;-76
2022/10/11 09:21:04;;;;;;;18.20;3.42;;;;;;;;;;4991572;28;20041;-74
2022/10/11 09:23:49;;;;;;;23.48;3.60;;;;;;;;;;4991697;28;20037;-75
2022/10/11 09:26:27;;;;;;;13.27;3.10;;;;;;;;;;4991793;28;20535;-77
2022/10/11 09:28:59;;;;;;;18.95;3.50;;;;;;;;;;4992235;28;20040;-77
2022/10/11 09:31:25;;;;;;;9.13;2.22;;;;;;;;;;4991501;28;20499;-76
2022/10/11 09:33:52;;;;;;;16.42;3.13;;;;;;;;;;4991793;28;20507;-76
2022/10/11 09:36:33;;;;;;;11.18;2.78;;;;;;;;;;4991804;28;20026;-76
2022/10/11 09:39:04;;;;;;;17.38;3.30;;;;;;;;;;4991614;28;20404;-74
2022/10/11 09:41:30;;;;;;;14.20;3.23;;;;;;;;;;4991465;28;20041;-76
2022/10/11 09:43:56;;;;;;;19.02;3.97;;;;;;;;;;4992099;28;20026;-77
2022/10/11 09:46:23;;;;;;;8.90;2.92;;;;;;;;;;4991483;28;20172;-76
2022/10/11 09:48:50;;;;;;;12.98;3.00;;;;;;;;;;4991164;28;20026;-76
2022/10/11 09:51:18;;;;;;;10.90;2.80;;;;;;;;;;4991287;28;20018;-76
2022/10/11 09:53:50;;;;;;;18.27;3.42;;;;;;;;;;4991821;28;20054;-76
2022/10/11 09:56:16;;;;;;;16.98;3.10;;;;;;;;;;4990904;28;20022;-74
2022/10/11 09:58:42;;;;;;;17.38;3.40;;;;;;;;;;4994347;28;20019;-73
2022/10/11 10:01:10;;;;;;;13.23;3.17;;;;;;;;;;4994843;28;20041;-74
2022/10/11 10:03:37;;;;;;;13.52;2.75;;;;;;;;;;4994907;28;20314;-76
2022/10/11 10:06:17;;;;;;;10.38;2.15;;;;;;;;;;4994283;28;20365;-74
2022/10/11 10:08:45;;;;;;;15.00;2.83;;;;;;;;;;4976832;28;20031;-76
2022/10/11 10:11:12;;;;;;;23.33;3.17;;;;;;;;;;4994313;28;20076;-76
2022/10/11 10:13:38;;;;;;;13.55;3.05;;;;;;;;;;4994982;28;20019;-76
2022/10/11 10:16:04;;;;;;;10.65;2.38;;;;;;;;;;5004730;28;20042;-75
2022/10/11 10:18:38;;;;;;;11.27;2.47;;;;;;;;;;5010716;28;20017;-76
2022/10/11 10:21:06;;;;;;;12.32;2.42;;;;;;;;;;5012172;28;20061;-75
2022/10/11 10:23:33;;;;;;;12.02;2.50;;;;;;;;;;5005404;28;20030;-76
2022/10/11 10:26:13;;;;;;;8.57;2.55;;;;;;;;;;4995272;28;20026;-75
2022/10/11 10:28:49;;;;;;;10.07;2.35;;;;;;;;;;4994559;28;20027;-76
2022/10/11 10:31:22;;;;;;;17.90;6.75;;;;;;;;;;4994886;28;20473;-78
2022/10/11 10:33:50;;;;;;;20.00;3.05;;;;;;;;;;4994622;28;20014;-76
2022/10/11 10:36:18;;;;;;;12.20;2.50;;;;;;;;;;4994185;28;20022;-75
2022/10/11 10:38:49;;;;;;;10.63;2.80;;;;;;;;;;4994158;28;20050;-74
2022/10/11 10:41:16;;;;;;;13.15;2.78;;;;;;;;;;4994267;28;20026;-76
2022/10/11 10:43:43;;;;;;;10.90;2.50;;;;;;;;;;4994361;28;20037;-76
2022/10/11 10:46:18;;;;;;;7.65;2.22;;;;;;;;;;4994385;28;20029;-74
2022/10/11 10:48:50;;;;;;;8.85;1.75;;;;;;;;;;4982105;28;20027;-77
2022/10/11 10:51:35;;;;;;;14.10;2.90;;;;;;;;;;4994354;28;20578;-78
2022/10/11 10:54:01;;;;;;;12.57;2.70;;;;;;;;;;4977372;28;20015;-73
2022/10/11 10:56:47;;;;;;;12.80;2.72;;;;;;;;;;4995128;28;20543;-75
2022/10/11 10:59:33;;;;;;;10.55;2.22;;;;;;;;;;4981045;28;20033;-76
2022/10/11 11:02:08;;;;;;;10.65;2.35;;;;;;;;;;4995067;28;20404;-76
2022/10/11 11:04:35;;;;;;;11.27;1.90;;;;;;;;;;4994362;28;20049;-75
2022/10/11 11:07:12;;;;;;;13.50;3.60;;;;;;;;;;4994566;28;20096;-75
2022/10/11 11:09:41;;;;;;;9.90;2.45;;;;;;;;;;4975443;28;20101;-75
2022/10/11 11:12:17;;;;;;;10.57;1.85;;;;;;;;;;4976339;28;20393;-75
2022/10/11 11:14:43;;;;;;;9.52;1.95;;;;;;;;;;4993762;28;20076;-75
2022/10/11 11:17:18;;;;;;;9.10;1.95;;;;;;;;;;4993116;28;20030;-74
2022/10/11 11:19:44;;;;;;;10.75;2.13;;;;;;;;;;4993516;28;20030;-74
2022/10/11 11:22:18;;;;;;;11.93;2.13;;;;;;;;;;4993759;28;20030;-75
2022/10/11 11:25:00;;;;;;;9.13;2.28;;;;;;;;;;4993372;28;20030;-74
2022/10/11 11:27:45;;;;;;;11.63;2.10;;;;;;;;;;4993172;28;20022;-74
2022/10/11 11:30:13;;;;;;;8.30;1.90;;;;;;;;;;4993110;28;20034;-75
2022/10/11 11:32:48;;;;;;;8.55;1.60;;;;;;;;;;4993630;28;20026;-74
2022/10/11 11:35:23;;;;;;;10.20;1.70;;;;;;;;;;4993110;28;20058;-78
2022/10/11 11:37:51;;;;;;;10.45;2.15;;;;;;;;;;4993423;28;20070;-77
2022/10/11 11:40:26;;;;;;;7.72;1.90;;;;;;;;;;4980524;28;20034;-74
2022/10/11 11:42:58;;;;;;;5.70;1.70;;;;;;;;;;4993259;28;20023;-75
2022/10/11 11:45:24;;;;;;;6.25;1.40;;;;;;;;;;4993141;28;20113;-76
2022/10/11 11:47:54;;;;;;;7.03;1.90;;;;;;;;;;4992485;28;20113;-75
2022/10/11 11:50:23;;;;;;;6.70;1.60;;;;;;;;;;4993282;28;20081;-76
2022/10/11 11:52:55;;;;;;;10.85;2.20;;;;;;;;;;4992811;28;20022;-76
2022/10/11 11:55:26;;;;;;;6.60;2.25;;;;;;;;;;4992900;28;20026;-76
2022/10/11 11:58:11;;;;;;;16.05;3.97;;;;;;;;;;4992676;28;20026;-77
2022/10/11 12:00:46;;;;;;;7.50;1.65;;;;;;;;;;4992964;28;20077;-76
2022/10/11 12:03:15;;;;;;;19.40;2.40;;;;;;;;;;4992736;28;20018;-75
2022/10/11 12:06:01;;;;;;;6.68;1.58;;;;;;;;;;4993104;28;20391;-76
2022/10/11 12:08:31;;;;;;;9.35;1.80;;;;;;;;;;4991983;28;20085;-75
2022/10/11 12:11:00;;;;;;;13.35;2.53;;;;;;;;;;4992735;28;20034;-78
2022/10/11 12:13:36;;;;;;;9.07;1.75;;;;;;;;;;4975041;28;20492;-78
2022/10/11 12:16:09;;;;;;;13.25;2.08;;;;;;;;;;4992594;28;20034;-75
2022/10/11 12:18:46;;;;;;;9.25;1.95;;;;;;;;;;4992398;28;20512;-76
2022/10/11 12:21:20;;;;;;;9.88;1.85;;;;;;;;;;4991643;28;20374;-73
2022/10/11 12:23:47;;;;;;;9.25;2.10;;;;;;;;;;4992640;28;20507;-74
2022/10/11 12:26:30;;;;;;;12.52;2.17;;;;;;;;;;4992220;28;20034;-75
2022/10/11 12:29:02;;;;;;;8.20;2.67;;;;;;;;;;4992422;28;20053;-76
2022/10/11 12:31:33;;;;;;;10.60;2.05;;;;;;;;;;4992244;28;20026;-75
2022/10/11 12:34:08;;;;;;;10.70;2.65;;;;;;;;;;4992505;28;20512;-76
2022/10/11 12:36:41;;;;;;;8.63;1.95;;;;;;;;;;4991758;28;20022;-76
2022/10/11 12:39:19;;;;;;;16.67;2.55;;;;;;;;;;4992599;28;20022;-75
2022/10/11 12:41:48;;;;;;;10.02;1.63;;;;;;;;;;4992176;28;20046;-76
2022/10/11 12:44:17;;;;;;;13.73;2.03;;;;;;;;;;4992315;28;20022;-76
2022/10/11 12:46:50;;;;;;;6.53;1.90;;;;;;;;;;4992067;28;20025;-75
2022/10/11 12:49:41;;;;;;;5.78;1.42;;;;;;;;;;4991986;28;20046;-74
2022/10/11 12:52:22;;;;;;;6.05;1.65;;;;;;;;;;4981263;28;20026;-75
2022/10/11 12:55:01;;;;;;;9.18;1.95;;;;;;;;;;4992786;28;20077;-75
2022/10/11 12:57:36;;;;;;;11.32;1.95;;;;;;;;;;4991958;28;20054;-77
2022/10/11 13:00:17;;;;;;;5.07;1.30;;;;;;;;;;4989235;28;20060;-75
2022/10/11 13:02:43;;;;;;;9.75;2.08;;;;;;;;;;4990671;28;20498;-75
2022/10/11 13:05:28;;;;;;;9.23;1.80;;;;;;;;;;4989971;28;20443;-75
2022/10/11 13:07:56;;;;;;;7.85;1.98;;;;;;;;;;4991671;28;20088;-75
2022/10/11 13:10:27;;;;;;;10.45;2.22;;;;;;;;;;4974905;28;20058;-74
2022/10/11 13:12:53;;;;;;;;;;;;;;;;;;4992114;28;20026;-76
2022/10/11 13:15:20;;;;;;;6.90;1.73;;;;;;;;;;4992454;28;19913;-75
2022/10/11 13:17:49;;;;;;;5.88;1.55;;;;;;;;;;4974289;28;20026;-76
2022/10/11 13:20:18;;;;;;;6.05;1.90;;;;;;;;;;4995556;28;20073;-76
2022/10/11 13:22:49;;;;;;;7.05;1.60;;;;;;;;;;5003184;28;20022;-76
2022/10/11 13:25:17;;;;;;;10.10;1.65;;;;;;;;;;4978882;28;20030;-75
2022/10/11 13:27:43;;;;;;;6.80;1.42;;;;;;;;;;4991207;28;20485;-76
2022/10/11 13:30:15;;;;;;;6.13;1.60;;;;;;;;;;4991613;28;20031;-76
2022/10/11 13:32:42;;;;;;;10.68;2.08;;;;;;;;;;4977426;28;20018;-76
2022/10/11 13:35:15;;;;;;;8.30;1.40;;;;;;;;;;5007311;28;20423;-73
2022/10/11 13:37:43;;;;;;;9.57;2.10;;;;;;;;;;4997778;28;20432;-76
2022/10/11 13:40:13;;;;;;;13.38;2.03;;;;;;;;;;4995210;28;20447;-74
2022/10/11 13:42:40;;;;;;;11.73;1.85;;;;;;;;;;5001290;28;20029;-75
2022/10/11 13:45:09;;;;;;;5.78;1.50;;;;;;;;;;4995412;28;20026;-74
2022/10/11 13:47:35;;;;;;;6.50;1.67;;;;;;;;;;4992504;28;20026;-76
2022/10/11 13:50:09;;;;;;;6.72;1.92;;;;;;;;;;4992279;28;20049;-73
2022/10/11 13:52:35;;;;;;;4.97;1.60;;;;;;;;;;4992902;28;20105;-76
2022/10/11 13:55:06;;;;;;;11.63;1.55;;;;;;;;;;4992268;28;20022;-77
2022/10/11 13:57:42;;;;;;;8.88;1.75;;;;;;;;;;4992339;28;20030;-76
2022/10/11 14:00:14;;;;;;;10.20;1.70;;;;;;;;;;4992878;28;20033;-73
2022/10/11 14:02:58;;;;;;;5.70;1.58;;;;;;;;;;4994558;28;20022;-75
2022/10/11 14:05:28;;;;;;;6.97;1.77;;;;;;;;;;4983015;28;20435;-75
2022/10/11 14:07:54;;;;;;;6.20;1.50;;;;;;;;;;4994350;28;20489;-75
2022/10/11 14:10:21;;;;;;;6.43;1.55;;;;;;;;;;4994992;28;20061;-76
2022/10/11 14:13:21;;;;;;;8.25;1.73;;;;;;;;;;4977269;28;20018;-75
2022/10/11 14:15:57;;;;;;;4.13;1.23;;;;;;;;;;4985995;28;20489;-76
2022/10/11 14:18:32;;;;;;;7.40;1.60;;;;;;;;;;4994179;28;20477;-75
2022/10/11 14:21:16;;;;;;;7.50;2.03;;;;;;;;;;4994639;28;20484;-75
2022/10/11 14:23:42;;;;;;;7.97;1.58;;;;;;;;;;4994453;28;20030;-76
2022/10/11 14:26:10;;;;;;;8.00;1.83;;;;;;;;;;4994346;28;20084;-76
2022/10/11 14:28:36;;;;;;;8.50;2.03;;;;;;;;;;4993993;28;20014;-75
2022/10/11 14:31:02;;;;;;;7.47;1.63;;;;;;;;;;4994481;28;20037;-75
2022/10/11 14:33:28;;;;;;;6.85;2.03;;;;;;;;;;4994159;28;20401;-73
2022/10/11 14:35:54;;;;;;;9.98;2.40;;;;;;;;;;4994288;28;20029;-76
2022/10/11 14:38:20;;;;;;;8.65;1.92;;;;;;;;;;4994509;28;20113;-75
2022/10/11 14:40:46;;;;;;;9.38;1.98;;;;;;;;;;4977363;28;20035;-75
2022/10/11 14:43:12;;;;;;;8.07;1.52;;;;;;;;;;4994213;28;20025;-75
2022/10/11 14:45:38;;;;;;;11.25;2.10;;;;;;;;;;4995000;28;20034;-74
2022/10/11 14:48:04;;;;;;;6.03;1.23;;;;;;;;;;4994547;28;20105;-75
2022/10/11 14:50:42;;;;;;;9.00;2.03;;;;;;;;;;4994682;28;20026;-74
2022/10/11 14:53:09;;;;;;;7.85;1.60;;;;;;;;;;4994574;28;20049;-74
2022/10/11 14:55:38;;;;;;;7.07;1.60;;;;;;;;;;4994465;28;20022;-76
2022/10/11 14:58:05;;;;;;;7.82;1.58;;;;;;;;;;4993882;28;20041;-75